createdAt,value
2023-01-15T00:01:52.819Z,8.74
2023-01-15T00:04:19.844Z,8.73
2023-01-15T00:06:46.539Z,8.73
2023-01-15T00:09:16.655Z,8.58
2023-01-15T00:11:43.439Z,8.54
2023-01-15T00:14:10.243Z,8.53
2023-01-15T00:16:36.932Z,8.50
2023-01-15T00:19:04.723Z,8.42
2023-01-15T00:21:32.047Z,8.51
2023-01-15T00:24:17.498Z,8.51
2023-01-15T00:27:02.858Z,8.46
2023-01-15T00:29:29.900Z,8.49
2023-01-15T00:32:07.545Z,8.45
2023-01-15T00:34:34.855Z,8.44
2023-01-15T00:37:02.505Z,8.45
2023-01-15T00:39:31.826Z,8.44
2023-01-15T00:41:58.503Z,8.44
2023-01-15T00:44:25.188Z,8.41
2023-01-15T00:46:52.381Z,8.44
2023-01-15T00:49:20.886Z,8.42
2023-01-15T00:51:48.635Z,8.43
2023-01-15T00:54:15.364Z,8.34
2023-01-15T00:56:42.129Z,8.32
2023-01-15T00:59:09.016Z,8.29
2023-01-15T01:01:35.992Z,8.32
2023-01-15T01:04:02.810Z,8.23
2023-01-15T01:06:29.857Z,8.25
2023-01-15T01:08:56.895Z,8.25
2023-01-15T01:11:26.866Z,8.28
2023-01-15T01:13:54.817Z,8.23
2023-01-15T01:16:35.817Z,8.22
2023-01-15T01:19:05.837Z,8.16
2023-01-15T01:21:32.940Z,8.23
2023-01-15T01:24:00.758Z,8.24
2023-01-15T01:26:31.013Z,8.24
2023-01-15T01:28:58.348Z,8.24
2023-01-15T01:31:25.757Z,8.21
2023-01-15T01:33:54.587Z,8.20
2023-01-15T01:36:26.685Z,8.22
2023-01-15T01:38:53.553Z,8.28
2023-01-15T01:41:20.465Z,8.29
2023-01-15T01:44:03.543Z,8.29
2023-01-15T01:46:32.899Z,8.33
2023-01-15T01:49:04.567Z,8.29
2023-01-15T01:51:40.003Z,8.25
2023-01-15T01:54:09.411Z,8.21
2023-01-15T01:56:37.197Z,8.17
2023-01-15T01:59:06.990Z,8.18
2023-01-15T02:01:34.242Z,8.23
2023-01-15T02:04:01.305Z,8.17
2023-01-15T02:06:29.742Z,8.13
2023-01-15T02:08:56.461Z,8.19
2023-01-15T02:11:24.692Z,8.23
2023-01-15T02:14:00.444Z,8.21
2023-01-15T02:16:41.770Z,8.14
2023-01-15T02:19:14.548Z,8.17
2023-01-15T02:21:50.176Z,8.09
2023-01-15T02:24:34.846Z,8.06
2023-01-15T02:27:02.537Z,8.02
2023-01-15T02:29:48.307Z,8.10
2023-01-15T02:32:23.041Z,8.05
2023-01-15T02:34:54.942Z,8.02
2023-01-15T02:37:28.074Z,7.99
2023-01-15T02:39:59.275Z,7.99
2023-01-15T02:42:29.773Z,8.04
2023-01-15T02:45:01.354Z,8.00
2023-01-15T02:47:33.972Z,7.97
2023-01-15T02:50:02.094Z,8.05
2023-01-15T02:52:40.478Z,8.07
2023-01-15T02:55:12.541Z,8.07
2023-01-15T02:57:47.260Z,8.09
2023-01-15T03:00:19.560Z,8.10
2023-01-15T03:02:51.444Z,8.07
2023-01-15T03:05:23.594Z,8.11
2023-01-15T03:07:55.238Z,8.17
2023-01-15T03:10:52.540Z,8.17
2023-01-15T03:13:46.285Z,8.18
2023-01-15T03:16:46.946Z,8.18
2023-01-15T03:19:41.939Z,8.16
2023-01-15T03:22:34.934Z,8.18
2023-01-15T03:25:13.429Z,8.17
2023-01-15T03:27:45.926Z,8.22
2023-01-15T03:30:20.959Z,8.21
2023-01-15T03:32:49.911Z,8.25
2023-01-15T03:35:59.032Z,8.32
2023-01-15T03:38:55.199Z,8.21
2023-01-15T03:41:53.792Z,8.30
2023-01-15T03:44:40.478Z,8.22
2023-01-15T03:47:28.453Z,8.26
2023-01-15T03:50:25.594Z,8.19
2023-01-15T03:53:05.584Z,8.23
2023-01-15T03:55:45.858Z,8.21
2023-01-15T03:58:20.240Z,8.19
2023-01-15T04:00:59.823Z,8.19
2023-01-15T04:03:29.286Z,8.21
2023-01-15T04:06:00.523Z,8.26
2023-01-15T04:08:33.743Z,8.17
2023-01-15T04:11:02.035Z,8.15
2023-01-15T04:13:32.496Z,8.09
2023-01-15T04:15:59.852Z,8.08
2023-01-15T04:18:26.860Z,8.09
2023-01-15T04:20:55.683Z,8.11
2023-01-15T04:23:23.358Z,8.11
2023-01-15T04:25:50.009Z,8.02
2023-01-15T04:28:16.646Z,8.00
2023-01-15T04:30:43.697Z,7.93
2023-01-15T04:33:11.378Z,7.88
2023-01-15T04:35:39.281Z,7.89
2023-01-15T04:38:05.930Z,7.84
2023-01-15T04:40:55.629Z,7.88
2023-01-15T04:43:48.171Z,7.91
2023-01-15T04:46:14.974Z,7.94
2023-01-15T04:48:41.687Z,7.92
2023-01-15T04:51:08.323Z,7.97
2023-01-15T04:53:34.937Z,8.04
2023-01-15T04:56:03.546Z,8.09
2023-01-15T04:58:30.681Z,8.06
2023-01-15T05:01:00.694Z,8.13
2023-01-15T05:03:31.326Z,8.10
2023-01-15T05:06:02.920Z,8.07
2023-01-15T05:08:29.556Z,8.10
2023-01-15T05:10:56.562Z,8.15
2023-01-15T05:13:23.187Z,8.14
2023-01-15T05:15:49.849Z,8.17
2023-01-15T05:18:16.593Z,8.18
2023-01-15T05:20:43.671Z,8.16
2023-01-15T05:23:10.283Z,8.29
2023-01-15T05:25:37.650Z,8.27
2023-01-15T05:28:04.618Z,8.28
2023-01-15T05:30:31.371Z,8.23
2023-01-15T05:32:58.022Z,8.24
2023-01-15T05:35:24.660Z,8.20
2023-01-15T05:37:51.679Z,8.16
2023-01-15T05:40:18.364Z,8.02
2023-01-15T05:42:45.047Z,8.05
2023-01-15T05:45:11.685Z,8.05
2023-01-15T05:47:38.352Z,8.03
2023-01-15T05:50:05.416Z,8.05
2023-01-15T05:52:32.030Z,7.87
2023-01-15T05:54:58.686Z,7.87
2023-01-15T05:57:25.308Z,7.83
2023-01-15T05:59:53.402Z,7.79
2023-01-15T06:02:20.391Z,7.82
2023-01-15T06:04:47.086Z,7.75
2023-01-15T06:07:13.848Z,7.76
2023-01-15T06:09:40.477Z,7.76
2023-01-15T06:12:07.209Z,7.62
2023-01-15T06:14:33.972Z,7.66
2023-01-15T06:17:00.613Z,7.64
2023-01-15T06:19:27.974Z,7.59
2023-01-15T06:21:54.643Z,7.52
2023-01-15T06:24:21.339Z,7.52
2023-01-15T06:26:48.051Z,7.45
2023-01-15T06:29:18.642Z,7.49
2023-01-15T06:31:45.665Z,7.47
2023-01-15T06:34:12.343Z,7.42
2023-01-15T06:36:39.006Z,7.43
2023-01-15T06:39:05.673Z,7.41
2023-01-15T06:41:51.009Z,7.38
2023-01-15T06:44:37.274Z,7.37
2023-01-15T06:47:23.628Z,7.36
2023-01-15T06:49:53.621Z,7.36
2023-01-15T06:52:21.045Z,7.34
2023-01-15T06:54:47.867Z,7.25
2023-01-15T06:57:14.566Z,7.26
2023-01-15T06:59:41.307Z,7.31
2023-01-15T07:02:07.985Z,7.25
2023-01-15T07:04:34.629Z,7.27
2023-01-15T07:07:01.272Z,7.11
2023-01-15T07:09:27.997Z,6.96
2023-01-15T07:11:54.704Z,6.84
2023-01-15T07:14:28.056Z,6.74
2023-01-15T07:16:55.527Z,6.65
2023-01-15T07:19:22.242Z,6.56
2023-01-15T07:21:49.006Z,6.50
2023-01-15T07:24:17.027Z,6.38
2023-01-15T07:26:44.191Z,6.16
2023-01-15T07:29:10.899Z,6.06
2023-01-15T07:31:38.069Z,5.97
2023-01-15T07:34:05.272Z,5.87
2023-01-15T07:36:32.277Z,5.84
2023-01-15T07:38:58.959Z,5.76
2023-01-15T07:41:44.318Z,5.72
2023-01-15T07:44:30.610Z,5.67
2023-01-15T07:47:15.846Z,5.58
2023-01-15T07:49:46.497Z,5.58
2023-01-15T07:52:14.623Z,5.48
2023-01-15T07:54:41.456Z,5.31
2023-01-15T07:57:08.769Z,5.19
2023-01-15T07:59:35.452Z,5.06
2023-01-15T08:02:02.266Z,4.95
2023-01-15T08:04:28.939Z,4.75
2023-01-15T08:06:55.623Z,4.72
2023-01-15T08:09:22.363Z,4.56
2023-01-15T08:12:07.459Z,4.54
2023-01-15T08:14:52.632Z,4.43
2023-01-15T08:17:19.319Z,4.32
2023-01-15T08:19:45.946Z,4.22
2023-01-15T08:22:12.530Z,4.20
2023-01-15T08:24:39.232Z,4.13
2023-01-15T08:27:05.955Z,4.08
2023-01-15T08:29:32.650Z,4.06
2023-01-15T08:31:59.266Z,4.06
2023-01-15T08:34:26.304Z,3.99
2023-01-15T08:36:59.970Z,3.95
2023-01-15T08:39:28.004Z,3.84
2023-01-15T08:41:56.366Z,3.80
2023-01-15T08:44:24.284Z,3.78
2023-01-15T08:46:52.114Z,3.77
2023-01-15T08:49:20.274Z,3.72
2023-01-15T08:51:50.008Z,3.71
2023-01-15T08:54:20.938Z,3.67
2023-01-15T08:56:48.087Z,3.69
2023-01-15T08:59:14.715Z,3.72
2023-01-15T09:01:41.828Z,3.63
2023-01-15T09:04:13.235Z,3.69
2023-01-15T09:06:39.961Z,3.65
2023-01-15T09:09:06.717Z,3.68
2023-01-15T09:11:33.377Z,3.69
2023-01-15T09:14:00.035Z,3.67
2023-01-15T09:16:27.924Z,3.72
2023-01-15T09:18:54.699Z,3.70
2023-01-15T09:21:21.371Z,3.70
2023-01-15T09:23:48.057Z,3.72
2023-01-15T09:26:28.421Z,3.76
2023-01-15T09:28:55.611Z,3.77
2023-01-15T09:31:23.673Z,3.73
2023-01-15T09:33:50.565Z,3.73
2023-01-15T09:36:19.882Z,3.73
2023-01-15T09:38:46.565Z,3.74
2023-01-15T09:41:33.946Z,3.78
2023-01-15T09:44:11.862Z,3.86
2023-01-15T09:47:04.307Z,3.85
2023-01-15T09:49:49.366Z,3.85
2023-01-15T09:52:46.112Z,3.81
2023-01-15T09:55:48.804Z,3.80
2023-01-15T09:58:19.866Z,3.75
2023-01-15T10:00:51.721Z,3.74
2023-01-15T10:03:25.393Z,3.77
2023-01-15T10:06:14.093Z,3.73
2023-01-15T10:08:46.197Z,3.72
2023-01-15T10:11:15.630Z,3.76
2023-01-15T10:14:05.426Z,3.74
2023-01-15T10:16:35.810Z,3.71
2023-01-15T10:19:04.079Z,3.72
2023-01-15T10:21:48.086Z,3.72
2023-01-15T10:24:19.521Z,3.72
2023-01-15T10:26:56.561Z,3.71
2023-01-15T10:29:54.242Z,3.71
2023-01-15T10:33:04.018Z,3.66
2023-01-15T10:35:45.755Z,3.69
2023-01-15T10:38:24.470Z,3.71
2023-01-15T10:41:26.731Z,3.75
2023-01-15T10:44:10.490Z,3.77
2023-01-15T10:46:40.528Z,3.84
2023-01-15T10:49:16.011Z,3.92
2023-01-15T10:51:54.418Z,3.91
2023-01-15T10:54:32.152Z,3.91
2023-01-15T10:57:27.253Z,3.92
2023-01-15T10:59:58.805Z,3.91
2023-01-15T11:02:38.015Z,3.93
2023-01-15T11:05:05.203Z,3.91
2023-01-15T11:10:41.544Z,3.88
2023-01-15T11:13:44.854Z,3.85
2023-01-15T11:16:35.906Z,3.81
2023-01-15T11:19:24.526Z,3.83
2023-01-15T11:21:54.162Z,3.83
2023-01-15T11:24:21.009Z,3.85
2023-01-15T11:26:51.458Z,3.86
2023-01-15T11:29:30.043Z,3.86
2023-01-15T11:31:56.776Z,3.88
2023-01-15T11:34:24.285Z,3.90
2023-01-15T11:37:05.260Z,3.81
2023-01-15T11:39:32.487Z,3.57
2023-01-15T11:42:23.413Z,3.33
2023-01-15T11:45:16.341Z,2.97
2023-01-15T11:48:14.785Z,2.74
2023-01-15T11:50:56.915Z,2.66
2023-01-15T11:53:34.607Z,2.61
2023-01-15T11:56:06.603Z,2.46
2023-01-15T11:58:40.211Z,2.26
2023-01-15T12:01:07.432Z,2.13
2023-01-15T12:03:36.244Z,2.01
2023-01-15T12:06:08.058Z,1.91
2023-01-15T12:09:12.440Z,1.75
2023-01-15T12:11:50.901Z,1.69
2023-01-15T12:14:39.188Z,1.72
2023-01-15T12:17:37.664Z,1.74
2023-01-15T12:20:16.462Z,1.75
2023-01-15T12:22:55.233Z,1.69
2023-01-15T12:25:33.193Z,1.73
2023-01-15T12:28:14.260Z,1.77
2023-01-15T12:30:52.994Z,1.70
2023-01-15T12:34:01.374Z,1.68
2023-01-15T12:36:43.150Z,1.69
2023-01-15T12:39:18.791Z,1.69
2023-01-15T12:42:08.636Z,1.67
2023-01-15T12:45:04.139Z,1.66
2023-01-15T12:47:46.772Z,1.65
2023-01-15T12:50:32.330Z,1.64
2023-01-15T12:53:20.188Z,1.58
2023-01-15T12:55:54.009Z,1.57
2023-01-15T12:58:31.392Z,1.59
2023-01-15T13:01:14.080Z,1.65
2023-01-15T13:03:53.936Z,1.62
2023-01-15T13:06:25.669Z,1.53
2023-01-15T13:09:15.983Z,1.54
2023-01-15T13:11:42.663Z,1.48
2023-01-15T13:14:17.280Z,1.40
2023-01-15T13:17:05.297Z,1.50
2023-01-15T13:19:49.194Z,1.61
2023-01-15T13:22:25.085Z,1.62
2023-01-15T13:25:21.159Z,1.60
2023-01-15T13:28:10.361Z,1.64
2023-01-15T13:30:43.106Z,1.67
2023-01-15T13:33:25.121Z,1.73
2023-01-15T13:35:57.578Z,1.79
2023-01-15T13:38:27.199Z,1.93
2023-01-15T13:40:57.194Z,1.96
2023-01-15T13:43:32.565Z,1.93
2023-01-15T13:45:59.988Z,1.84
2023-01-15T13:48:36.193Z,1.79
2023-01-15T13:51:05.813Z,1.76
2023-01-15T13:53:38.285Z,1.70
2023-01-15T13:56:07.876Z,1.74
2023-01-15T13:59:07.306Z,1.79
2023-01-15T14:01:36.120Z,1.83
2023-01-15T14:04:18.024Z,1.88
2023-01-15T14:06:51.683Z,1.89
2023-01-15T14:09:18.238Z,1.89
2023-01-15T14:11:47.679Z,1.92
2023-01-15T14:14:29.495Z,1.99
2023-01-15T14:16:59.132Z,2.05
2023-01-15T14:19:47.070Z,2.12
2023-01-15T14:22:36.780Z,2.21
2023-01-15T14:25:22.198Z,2.27
2023-01-15T14:28:14.391Z,2.25
2023-01-15T14:30:47.483Z,2.26
2023-01-15T14:33:32.605Z,2.27
2023-01-15T14:36:11.008Z,2.20
2023-01-15T14:38:48.043Z,2.14
2023-01-15T14:41:15.035Z,2.08
2023-01-15T14:43:49.094Z,2.10
2023-01-15T14:46:25.262Z,2.03
2023-01-15T14:48:51.969Z,2.04
2023-01-15T14:51:27.394Z,2.02
2023-01-15T14:54:08.078Z,2.04
2023-01-15T14:56:37.740Z,2.25
2023-01-15T14:59:26.428Z,2.56
2023-01-15T15:02:13.465Z,2.69
2023-01-15T15:04:48.847Z,2.79
2023-01-15T15:07:18.986Z,2.79
2023-01-15T15:09:58.027Z,2.71
2023-01-15T15:12:39.401Z,2.63
2023-01-15T15:15:24.790Z,2.41
2023-01-15T15:18:13.727Z,2.25
2023-01-15T15:20:58.711Z,2.19
2023-01-15T15:23:37.506Z,2.14
2023-01-15T15:26:23.943Z,2.08
2023-01-15T15:29:04.834Z,2.08
2023-01-15T15:31:37.169Z,2.00
2023-01-15T15:34:06.721Z,1.98
2023-01-15T15:36:39.172Z,1.98
2023-01-15T15:39:44.429Z,1.94
2023-01-15T15:42:44.402Z,1.91
2023-01-15T15:45:42.835Z,1.90
2023-01-15T15:48:32.015Z,1.81
2023-01-15T15:50:59.683Z,1.78
2023-01-15T15:53:26.310Z,1.73
2023-01-15T15:55:55.054Z,1.71
2023-01-15T15:58:40.076Z,1.64
2023-01-15T16:01:11.711Z,1.64
2023-01-15T16:03:47.042Z,1.66
2023-01-15T16:06:20.584Z,1.61
2023-01-15T16:08:56.441Z,1.61
2023-01-15T16:11:25.712Z,1.58
2023-01-15T16:13:54.604Z,1.58
2023-01-15T16:16:22.047Z,1.58
2023-01-15T16:18:52.591Z,1.62
2023-01-15T16:21:26.729Z,1.63
2023-01-15T16:24:04.499Z,1.61
2023-01-15T16:26:45.851Z,1.54
2023-01-15T16:29:21.972Z,1.47
2023-01-15T16:31:48.772Z,1.41
2023-01-15T16:34:22.197Z,1.35
2023-01-15T16:36:48.934Z,1.34
2023-01-15T16:39:27.800Z,1.30
2023-01-15T16:42:02.147Z,1.27
2023-01-15T16:44:34.721Z,1.25
2023-01-15T16:47:02.274Z,1.21
2023-01-15T16:49:31.867Z,1.24
2023-01-15T16:52:00.855Z,1.24
2023-01-15T16:54:30.624Z,1.22
2023-01-15T16:57:01.837Z,1.20
2023-01-15T16:59:28.433Z,1.20
2023-01-15T17:02:02.377Z,1.18
2023-01-15T17:04:41.400Z,1.17
2023-01-15T17:07:14.104Z,1.18
2023-01-15T17:09:55.899Z,1.12
2023-01-15T17:12:43.367Z,1.16
2023-01-15T17:15:19.928Z,1.15
2023-01-15T17:17:47.431Z,1.14
2023-01-15T17:20:15.128Z,1.13
2023-01-15T17:22:45.012Z,1.11
2023-01-15T17:25:31.601Z,1.12
2023-01-15T17:27:59.790Z,1.13
2023-01-15T17:30:34.637Z,1.14
2023-01-15T17:33:03.056Z,1.12
2023-01-15T17:35:41.265Z,1.12
2023-01-15T17:38:11.841Z,1.08
2023-01-15T17:40:38.850Z,1.09
2023-01-15T17:43:05.811Z,1.10
2023-01-15T17:45:33.989Z,1.05
2023-01-15T17:48:04.107Z,1.02
2023-01-15T17:50:30.892Z,0.98
2023-01-15T17:52:57.558Z,0.96
2023-01-15T17:55:42.967Z,0.93
2023-01-15T17:58:31.242Z,0.93
2023-01-15T18:01:17.152Z,0.88
2023-01-15T18:04:06.573Z,0.90
2023-01-15T18:06:34.067Z,0.85
2023-01-15T18:09:03.674Z,0.89
2023-01-15T18:11:30.457Z,0.81
2023-01-15T18:13:57.927Z,0.84
2023-01-15T18:16:26.320Z,0.82
2023-01-15T18:18:54.131Z,0.85
2023-01-15T18:21:21.257Z,0.83
2023-01-15T18:23:47.916Z,0.84
2023-01-15T18:26:14.556Z,0.81
2023-01-15T18:28:41.218Z,0.80
2023-01-15T18:31:08.148Z,0.78
2023-01-15T18:33:35.105Z,0.80
2023-01-15T18:36:06.384Z,0.74
2023-01-15T18:38:35.505Z,0.70
2023-01-15T18:41:10.844Z,0.71
2023-01-15T18:43:56.268Z,0.68
2023-01-15T18:46:41.445Z,0.64
2023-01-15T18:49:08.092Z,0.63
2023-01-15T18:51:34.776Z,0.60
2023-01-15T18:54:01.501Z,0.56
2023-01-15T18:56:40.250Z,0.56
2023-01-15T18:59:08.944Z,0.56
2023-01-15T19:01:36.276Z,0.58
2023-01-15T19:04:06.755Z,0.56
2023-01-15T19:06:34.631Z,0.52
2023-01-15T19:09:01.720Z,0.52
2023-01-15T19:11:29.338Z,0.48
2023-01-15T19:14:15.643Z,0.47
2023-01-15T19:17:01.581Z,0.48
2023-01-15T19:19:28.321Z,0.50
2023-01-15T19:22:14.060Z,0.53
2023-01-15T19:24:40.713Z,0.54
2023-01-15T19:27:07.685Z,0.57
2023-01-15T19:29:34.710Z,0.60
2023-01-15T19:32:04.081Z,0.58
2023-01-15T19:34:33.848Z,0.61
2023-01-15T19:37:01.080Z,0.62
2023-01-15T19:39:29.054Z,0.68
2023-01-15T19:42:15.992Z,0.71
2023-01-15T19:45:01.202Z,0.68
2023-01-15T19:47:57.064Z,0.67
2023-01-15T19:50:43.519Z,0.66
2023-01-15T19:53:11.194Z,0.70
2023-01-15T19:55:40.456Z,0.67
2023-01-15T19:58:09.356Z,0.66
2023-01-15T20:00:37.830Z,0.64
2023-01-15T20:03:05.671Z,0.63
2023-01-15T20:05:33.031Z,0.61
2023-01-15T20:07:59.707Z,0.61
2023-01-15T20:10:28.784Z,0.55
2023-01-15T20:13:14.223Z,0.56
2023-01-15T20:15:43.819Z,0.51
2023-01-15T20:18:10.503Z,0.43
2023-01-15T20:20:38.668Z,0.43
2023-01-15T20:23:05.893Z,0.39
2023-01-15T20:25:33.011Z,0.40
2023-01-15T20:28:00.134Z,0.36
2023-01-15T20:30:28.008Z,0.34
2023-01-15T20:32:58.128Z,0.32
2023-01-15T20:35:29.238Z,0.31
2023-01-15T20:37:55.853Z,0.26
2023-01-15T20:40:24.370Z,0.30
2023-01-15T20:43:10.554Z,0.29
2023-01-15T20:45:37.651Z,0.28
2023-01-15T20:48:13.910Z,0.26
2023-01-15T20:51:02.560Z,0.25
2023-01-15T20:53:33.990Z,0.25
2023-01-15T20:56:02.555Z,0.24
2023-01-15T20:58:29.452Z,0.23
2023-01-15T21:01:03.343Z,0.20
2023-01-15T21:03:30.058Z,0.14
2023-01-15T21:05:58.158Z,0.11
2023-01-15T21:08:25.094Z,0.08
2023-01-15T21:10:53.310Z,0.09
2023-01-15T21:13:22.814Z,0.05
2023-01-15T21:16:00.718Z,0.05
2023-01-15T21:18:29.092Z,0.05
2023-01-15T21:20:55.824Z,0.08
2023-01-15T21:23:23.470Z,0.09
2023-01-15T21:25:50.400Z,0.09
2023-01-15T21:28:17.198Z,0.09
2023-01-15T21:30:44.799Z,0.11
2023-01-15T21:33:11.876Z,0.16
2023-01-15T21:35:40.522Z,0.19
2023-01-15T21:38:08.714Z,0.26
2023-01-15T21:40:39.188Z,0.28
2023-01-15T21:43:25.026Z,0.28
2023-01-15T21:45:51.800Z,0.23
2023-01-15T21:48:19.080Z,0.22
2023-01-15T21:50:45.884Z,0.20
2023-01-15T21:53:12.558Z,0.19
2023-01-15T21:55:39.236Z,0.14
2023-01-15T21:58:05.885Z,0.10
2023-01-15T22:00:32.601Z,0.02
2023-01-15T22:02:59.398Z,0.02
2023-01-15T22:05:26.082Z,0.07
2023-01-15T22:07:53.191Z,0.06
2023-01-15T22:10:19.898Z,0.06
2023-01-15T22:12:46.526Z,0.04
2023-01-15T22:15:13.244Z,0.02
2023-01-15T22:17:39.903Z,0.01
2023-01-15T22:20:07.248Z,0.04
2023-01-15T22:22:36.409Z,0.07
2023-01-15T22:25:05.591Z,0.08
2023-01-15T22:27:34.557Z,0.05
2023-01-15T22:30:01.394Z,0.03
2023-01-15T22:32:28.184Z,0.00
2023-01-15T22:34:54.816Z,0.00
2023-01-15T22:37:21.507Z,0.04
2023-01-15T22:39:49.333Z,0.06
2023-01-15T22:42:24.880Z,0.11
2023-01-15T22:44:51.803Z,0.08
2023-01-15T22:47:19.624Z,0.11
2023-01-15T22:49:46.560Z,0.14
2023-01-15T22:52:13.439Z,0.16
2023-01-15T22:54:41.399Z,0.15
2023-01-15T22:57:08.028Z,0.19
2023-01-15T22:59:34.769Z,0.16
2023-01-15T23:02:01.786Z,0.19
2023-01-15T23:04:28.672Z,0.24
2023-01-15T23:06:55.466Z,0.24
2023-01-15T23:09:23.480Z,0.23
2023-01-15T23:11:51.566Z,0.22
2023-01-15T23:14:19.752Z,0.23
2023-01-15T23:16:46.703Z,0.22
2023-01-15T23:19:14.333Z,0.22
2023-01-15T23:21:41.420Z,0.27
2023-01-15T23:24:08.706Z,0.31
2023-01-15T23:26:35.968Z,0.27
2023-01-15T23:29:03.433Z,0.25
2023-01-15T23:31:30.171Z,0.25
2023-01-15T23:33:56.830Z,0.21
2023-01-15T23:36:24.225Z,0.25
2023-01-15T23:38:50.952Z,0.21
2023-01-15T23:41:40.284Z,0.21
2023-01-15T23:44:32.009Z,0.20
2023-01-15T23:46:58.748Z,0.18
2023-01-15T23:49:25.705Z,0.18
2023-01-15T23:51:52.384Z,0.20
2023-01-15T23:54:19.037Z,0.17
2023-01-15T23:56:46.320Z,0.20
2023-01-15T23:59:13.055Z,0.19
